Time;durP1;ratioP1;P1;durP2;ratioP2;P2;SDS_P1;SDS_P2;PMS_P1;PMS_P2;Temp;Humidity;BMP_temperature;BMP_pressure;BME280_temperature;BME280_humidity;BME280_pressure;Samples;Min_cycle;Max_cycle;Signal;HPM_P1;HPM_P2
2023/05/28 00:01:54;;;;;;;19.50;9.50;;;;;;;16.62;52.98;101925.19;5029151;28;20025;-65
2023/05/28 00:04:21;;;;;;;17.42;9.82;;;;;;;16.59;53.17;101925.75;5030785;28;20108;-65
2023/05/28 00:06:48;;;;;;;17.25;10.63;;;;;;;16.52;53.46;101925.13;5025108;28;20168;-65
2023/05/28 00:09:14;;;;;;;18.10;10.05;;;;;;;16.54;53.10;101925.69;5011038;28;20123;-65
2023/05/28 00:11:39;;;;;;;18.13;11.02;;;;;;;16.44;53.33;101916.09;5014070;28;20049;-65
2023/05/28 00:14:05;;;;;;;16.95;9.80;;;;;;;16.47;53.28;101922.28;5010643;28;20030;-65
2023/05/28 00:16:30;;;;;;;16.13;9.60;;;;;;;16.42;53.41;101923.06;5011328;28;20516;-65
2023/05/28 00:18:55;;;;;;;15.43;9.30;;;;;;;16.42;53.75;101912.69;5028733;28;20114;-65
2023/05/28 00:21:20;;;;;;;17.77;9.93;;;;;;;16.36;53.66;101910.13;5029976;28;20029;-65
2023/05/28 00:23:47;;;;;;;16.98;9.68;;;;;;;16.35;53.77;101909.28;5030486;28;20057;-65
2023/05/28 00:26:12;;;;;;;16.73;9.48;;;;;;;16.32;53.69;101909.81;5023542;28;20033;-65
2023/05/28 00:28:37;;;;;;;14.27;9.30;;;;;;;16.26;53.92;101912.81;5010471;28;20037;-65
2023/05/28 00:31:03;;;;;;;18.10;10.50;;;;;;;16.29;53.84;101904.75;5010473;28;20053;-65
2023/05/28 00:33:28;;;;;;;14.90;9.57;;;;;;;16.19;54.03;101910.22;5013291;28;20089;-65
2023/05/28 00:35:55;;;;;;;20.38;9.65;;;;;;;16.22;53.94;101915.31;5029549;28;20109;-65
2023/05/28 00:38:21;;;;;;;17.13;10.27;;;;;;;16.17;54.09;101910.50;5029685;28;20029;-65
2023/05/28 00:40:47;;;;;;;20.92;9.80;;;;;;;16.16;54.03;101916.38;5015776;28;20041;-65
2023/05/28 00:43:12;;;;;;;16.95;9.25;;;;;;;16.12;54.30;101915.22;5009502;28;20424;-65
2023/05/28 00:45:37;;;;;;;15.98;9.88;;;;;;;16.11;54.46;101919.13;5010427;28;20114;-65
2023/05/28 00:48:02;;;;;;;13.02;8.85;;;;;;;16.12;54.40;101926.44;5012722;28;20034;-65
2023/05/28 00:50:28;;;;;;;15.32;9.88;;;;;;;16.13;54.47;101923.34;5023111;28;20030;-65
2023/05/28 00:52:55;;;;;;;16.30;9.55;;;;;;;16.04;54.64;101926.91;5014382;28;20161;-65
2023/05/28 00:55:21;;;;;;;14.80;9.50;;;;;;;16.03;54.73;101919.59;5013236;28;20041;-65
2023/05/28 00:57:48;;;;;;;16.13;9.90;;;;;;;16.01;54.78;101916.22;5013590;28;20034;-65
2023/05/28 01:00:14;;;;;;;19.38;9.68;;;;;;;15.97;54.71;101917.88;5024413;28;20026;-65
2023/05/28 01:02:39;;;;;;;16.70;9.27;;;;;;;15.93;54.60;101917.53;5031021;28;20057;-65
2023/05/28 01:05:05;;;;;;;16.90;9.77;;;;;;;15.91;54.50;101906.59;5021626;28;20065;-65
2023/05/28 01:07:32;;;;;;;15.45;10.00;;;;;;;15.85;54.64;101904.03;5024921;28;20045;-65
2023/05/28 01:09:58;;;;;;;18.10;10.43;;;;;;;15.84;54.88;101905.13;5029059;28;20061;-65
2023/05/28 01:12:25;;;;;;;15.68;10.48;;;;;;;15.86;54.94;101912.13;5013982;28;20057;-65
2023/05/28 01:14:51;;;;;;;19.65;10.57;;;;;;;15.86;54.79;101912.13;5013406;28;20478;-65
2023/05/28 01:17:17;;;;;;;15.55;11.02;;;;;;;15.83;54.74;101906.22;5022445;28;20046;-65
2023/05/28 01:19:47;;;;;;;18.65;10.65;;;;;;;15.83;54.82;101903.41;5033077;28;20040;-65
2023/05/28 01:22:16;;;;;;;16.85;10.32;;;;;;;15.84;54.90;101908.78;5031826;28;20768;-65
2023/05/28 01:24:44;;;;;;;15.25;10.02;;;;;;;15.82;54.99;101907.34;5020079;28;20433;-65
2023/05/28 01:27:10;;;;;;;17.67;11.02;;;;;;;15.91;54.73;101905.75;5033378;28;20060;-65
2023/05/28 01:29:36;;;;;;;18.17;10.68;;;;;;;15.87;54.71;101913.81;5033307;28;20033;-64
2023/05/28 01:32:01;;;;;;;20.33;11.02;;;;;;;15.85;54.92;101906.81;5024857;28;20065;-64
2023/05/28 01:34:27;;;;;;;20.55;10.30;;;;;;;15.87;54.79;101910.19;5014483;28;20038;-66
2023/05/28 01:36:57;;;;;;;21.08;11.30;;;;;;;15.85;54.95;101910.47;5013326;28;20044;-66
2023/05/28 01:39:25;;;;;;;21.60;11.20;;;;;;;15.82;55.05;101915.72;5013410;28;20030;-65
2023/05/28 01:41:51;;;;;;;16.58;10.57;;;;;;;15.78;55.21;101915.41;5015511;28;20030;-64
2023/05/28 01:44:20;;;;;;;19.50;11.45;;;;;;;15.85;55.23;101920.81;5012802;28;20092;-64
2023/05/28 01:46:47;;;;;;;20.40;11.40;;;;;;;15.81;55.32;101917.69;5016369;28;20072;-65
2023/05/28 01:49:13;;;;;;;21.17;11.05;;;;;;;15.71;55.92;101914.75;5029896;28;20039;-65
2023/05/28 01:51:39;;;;;;;18.10;11.57;;;;;;;15.71;55.91;101914.75;5025872;28;20026;-65
2023/05/28 01:54:04;;;;;;;17.77;11.48;;;;;;;15.80;55.83;101913.22;5013052;28;20029;-65
2023/05/28 01:56:29;;;;;;;19.23;11.13;;;;;;;15.78;55.83;101920.16;5025002;28;20040;-65
2023/05/28 01:58:55;;;;;;;20.83;11.43;;;;;;;15.80;55.75;101913.22;5017365;28;20427;-65
2023/05/28 02:01:27;;;;;;;17.35;10.68;;;;;;;15.78;55.70;101912.59;5013702;28;20049;-64
2023/05/28 02:03:53;;;;;;;20.50;10.82;;;;;;;15.76;55.87;101906.44;5013225;28;20045;-64
2023/05/28 02:06:19;;;;;;;18.00;10.73;;;;;;;15.77;55.82;101896.94;5012587;28;20036;-65
2023/05/28 02:08:44;;;;;;;18.00;11.68;;;;;;;15.79;55.81;101894.69;5012947;28;20014;-64
2023/05/28 02:11:09;;;;;;;20.70;11.25;;;;;;;15.75;55.89;101901.09;5019607;28;20440;-65
2023/05/28 02:13:35;;;;;;;15.95;10.88;;;;;;;15.69;56.45;101900.19;5022651;28;20029;-65
2023/05/28 02:16:01;;;;;;;19.15;11.02;;;;;;;15.68;56.29;101898.50;5027487;28;20041;-65
2023/05/28 02:18:26;;;;;;;16.88;10.68;;;;;;;15.56;56.23;101893.03;5022402;28;20026;-65
2023/05/28 02:20:51;;;;;;;19.42;11.20;;;;;;;15.57;56.23;101891.06;5027978;28;20080;-65
2023/05/28 02:23:17;;;;;;;17.25;11.38;;;;;;;15.52;56.53;101889.03;5019956;28;20057;-65
2023/05/28 02:25:42;;;;;;;19.95;11.48;;;;;;;15.44;56.53;101879.16;5031658;28;20040;-65
2023/05/28 02:28:07;;;;;;;18.13;11.10;;;;;;;15.47;56.31;101887.03;5032051;28;20083;-65
2023/05/28 02:30:33;;;;;;;17.15;11.10;;;;;;;15.44;56.48;101886.69;5030143;28;20096;-65
2023/05/28 02:32:58;;;;;;;16.15;10.70;;;;;;;15.31;56.87;101884.28;5016967;28;20042;-65
2023/05/28 02:35:23;;;;;;;17.58;11.48;;;;;;;15.30;56.42;101877.84;5015364;28;20052;-65
2023/05/28 02:37:49;;;;;;;18.52;10.57;;;;;;;15.29;56.75;101881.78;5012128;28;20103;-65
2023/05/28 02:40:15;;;;;;;19.05;11.88;;;;;;;15.20;56.68;101880.50;5011017;28;20113;-65
2023/05/28 02:42:40;;;;;;;17.85;11.30;;;;;;;15.22;56.95;101889.50;5012351;28;20041;-65
2023/05/28 02:45:06;;;;;;;18.63;11.48;;;;;;;15.26;56.89;101889.84;5028526;28;20029;-65
2023/05/28 02:47:32;;;;;;;20.75;11.05;;;;;;;15.20;56.81;101891.69;5016095;28;20975;-65
2023/05/28 02:49:57;;;;;;;21.23;11.07;;;;;;;15.25;56.76;101889.00;5011164;28;20644;-65
2023/05/28 02:52:22;;;;;;;17.90;10.52;;;;;;;15.26;56.90;101893.47;5014508;28;20033;-65
2023/05/28 02:54:48;;;;;;;17.40;10.40;;;;;;;15.27;56.46;101891.50;5022246;28;20396;-65
2023/05/28 02:57:14;;;;;;;19.80;11.00;;;;;;;15.18;56.51;101891.97;5030587;28;20447;-64
2023/05/28 02:59:39;;;;;;;17.48;10.35;;;;;;;15.23;56.33;101891.19;5015879;28;20432;-65
2023/05/28 03:02:04;;;;;;;20.80;9.98;;;;;;;15.30;55.92;101891.84;5018988;28;20021;-65
2023/05/28 03:04:30;;;;;;;20.77;9.88;;;;;;;15.27;55.94;101900.75;5016442;28;20076;-65
2023/05/28 03:06:55;;;;;;;16.73;9.80;;;;;;;15.31;55.90;101899.13;5022543;28;20399;-65
2023/05/28 03:09:20;;;;;;;18.20;9.82;;;;;;;15.29;55.64;101895.75;5010868;28;20069;-65
2023/05/28 03:11:45;;;;;;;16.23;10.07;;;;;;;15.31;55.95;101898.28;5014860;28;20474;-65
2023/05/28 03:14:11;;;;;;;19.10;10.25;;;;;;;15.26;55.97;101893.47;5011726;28;20030;-65
2023/05/28 03:16:36;;;;;;;16.83;10.20;;;;;;;15.28;55.93;101896.00;5010602;28;20057;-65
2023/05/28 03:19:02;;;;;;;17.85;9.93;;;;;;;15.15;56.40;101894.44;5015529;28;20033;-65
2023/05/28 03:21:27;;;;;;;16.65;10.18;;;;;;;15.14;56.19;101893.59;5030239;28;20486;-65
2023/05/28 03:23:52;;;;;;;19.65;10.07;;;;;;;15.13;56.37;101896.63;5017764;28;20044;-65
2023/05/28 03:26:18;;;;;;;15.68;10.38;;;;;;;15.23;55.40;101885.59;5010440;28;20044;-65
2023/05/28 03:28:43;;;;;;;16.25;9.48;;;;;;;15.18;55.84;101891.97;5011857;28;20038;-65
2023/05/28 03:31:08;;;;;;;17.85;10.60;;;;;;;15.13;56.11;101893.81;5026140;28;20057;-65
2023/05/28 03:33:34;;;;;;;19.10;10.10;;;;;;;15.10;56.23;101891.56;5011067;28;20378;-65
2023/05/28 03:35:59;;;;;;;19.42;10.55;;;;;;;15.05;56.25;101886.75;5010103;28;20029;-65
2023/05/28 03:38:24;;;;;;;14.80;9.38;;;;;;;14.98;56.59;101892.53;5009632;28;20037;-66
2023/05/28 03:40:50;;;;;;;21.70;9.98;;;;;;;15.09;56.58;101898.25;5013388;28;20030;-65
2023/05/28 03:43:15;;;;;;;13.80;9.30;;;;;;;15.07;56.00;101897.66;5011242;28;20112;-65
2023/05/28 03:45:40;;;;;;;19.15;10.00;;;;;;;15.11;56.22;101899.69;5017560;28;20083;-65
2023/05/28 03:48:06;;;;;;;18.88;10.00;;;;;;;15.13;56.14;101896.63;5013383;28;20033;-65
2023/05/28 03:50:32;;;;;;;14.15;9.90;;;;;;;15.07;56.21;101906.06;5024770;28;20497;-65
2023/05/28 03:52:57;;;;;;;17.80;10.35;;;;;;;15.02;56.66;101909.63;5009919;28;20034;-65
2023/05/28 03:55:22;;;;;;;18.40;9.77;;;;;;;15.01;56.79;101905.13;5010458;28;20034;-65
2023/05/28 03:57:48;;;;;;;19.80;9.88;;;;;;;14.95;57.02;101900.59;5014768;28;20040;-65
2023/05/28 04:00:13;;;;;;;17.55;9.40;;;;;;;14.98;56.89;101908.47;5025967;28;20069;-65
2023/05/28 04:02:39;;;;;;;19.67;9.30;;;;;;;14.92;57.08;101901.94;5029543;28;20038;-65
2023/05/28 04:05:05;;;;;;;18.63;9.52;;;;;;;14.95;56.97;101907.00;5026749;28;20136;-65
2023/05/28 04:07:30;;;;;;;15.23;9.20;;;;;;;14.97;56.74;101913.22;5020980;28;20029;-65
2023/05/28 04:09:56;;;;;;;16.73;8.80;;;;;;;14.97;56.96;101912.34;5027976;28;20148;-66
2023/05/28 04:12:21;;;;;;;17.17;9.73;;;;;;;14.96;56.96;101914.28;5030037;28;20033;-65
2023/05/28 04:14:46;;;;;;;18.77;9.77;;;;;;;14.96;57.09;101907.84;5016474;28;20030;-65
2023/05/28 04:17:12;;;;;;;15.77;9.30;;;;;;;14.96;57.04;101913.44;5022783;28;20079;-65
2023/05/28 04:19:38;;;;;;;22.80;10.48;;;;;;;14.88;57.54;101914.72;5029773;28;20038;-65
2023/05/28 04:22:05;;;;;;;16.83;10.00;;;;;;;14.86;57.51;101916.09;5025228;28;20025;-65
2023/05/28 04:24:30;;;;;;;16.30;9.55;;;;;;;14.88;57.41;101922.28;5030287;28;20175;-65
2023/05/28 04:26:56;;;;;;;17.10;9.32;;;;;;;14.87;57.76;101928.97;5026371;28;20097;-65
2023/05/28 04:29:23;;;;;;;21.80;9.90;;;;;;;14.86;57.85;101924.50;5010051;28;20029;-65
2023/05/28 04:31:49;;;;;;;18.23;10.20;;;;;;;14.89;57.89;101913.63;5013490;28;20039;-65
2023/05/28 04:34:16;;;;;;;18.80;9.55;;;;;;;14.87;57.97;101923.38;5016916;28;20025;-65
2023/05/28 04:36:42;;;;;;;19.35;9.93;;;;;;;14.78;58.08;101922.97;5023907;28;20041;-65
2023/05/28 04:39:08;;;;;;;17.02;9.90;;;;;;;14.80;58.08;101928.28;5010103;28;20034;-65
2023/05/28 04:41:34;;;;;;;20.20;9.43;;;;;;;14.89;58.41;101935.97;5009764;28;20413;-65
2023/05/28 04:43:59;;;;;;;17.77;8.68;;;;;;;14.95;58.12;101936.94;5010412;28;20022;-65
2023/05/28 04:46:25;;;;;;;14.82;9.38;;;;;;;14.90;58.48;101937.69;5019242;28;20051;-65
2023/05/28 04:48:51;;;;;;;17.02;9.02;;;;;;;14.96;58.19;101933.00;5024320;28;20508;-65
2023/05/28 04:51:18;;;;;;;20.00;9.82;;;;;;;14.96;58.45;101945.03;5016263;28;20037;-65
2023/05/28 04:53:43;;;;;;;24.35;10.98;;;;;;;14.92;58.70;101938.28;5010777;28;20030;-64
2023/05/28 04:56:10;;;;;;;22.42;9.65;;;;;;;15.04;58.35;101934.53;5010244;28;20040;-66
2023/05/28 04:58:35;;;;;;;18.30;9.70;;;;;;;15.01;58.63;101929.44;5027084;28;20040;-66
2023/05/28 05:01:00;;;;;;;18.65;10.30;;;;;;;15.05;58.50;101930.63;5020667;28;20045;-65
2023/05/28 05:03:26;;;;;;;21.77;10.15;;;;;;;15.06;58.98;101935.97;5016419;28;20041;-65
2023/05/28 05:05:51;;;;;;;18.35;10.35;;;;;;;15.04;59.00;101940.13;5013650;28;20038;-65
2023/05/28 05:08:16;;;;;;;20.20;11.13;;;;;;;15.04;59.10;101931.72;5009514;28;20041;-65
2023/05/28 05:10:42;;;;;;;19.23;10.70;;;;;;;15.12;59.03;101928.50;5021968;28;20029;-65
2023/05/28 05:13:07;;;;;;;20.50;10.07;;;;;;;15.13;59.14;101938.56;5028697;28;20776;-65
2023/05/28 05:15:33;;;;;;;16.95;10.13;;;;;;;15.19;58.82;101927.22;5023803;28;20053;-65
2023/05/28 05:17:58;;;;;;;17.25;9.68;;;;;;;15.19;59.03;101941.19;5030046;28;20045;-65
2023/05/28 05:20:23;;;;;;;19.65;10.25;;;;;;;15.28;58.86;101938.78;5026155;28;20029;-65
2023/05/28 05:22:49;;;;;;;21.48;10.48;;;;;;;15.29;59.11;101934.91;5027914;28;20064;-65
2023/05/28 05:25:14;;;;;;;19.38;9.80;;;;;;;15.35;59.07;101945.06;5029191;28;20052;-65
2023/05/28 05:27:39;;;;;;;20.13;9.85;;;;;;;15.45;58.74;101949.97;5029515;28;20033;-66
2023/05/28 05:30:06;;;;;;;18.52;10.80;;;;;;;15.50;58.71;101940.78;5029188;28;20030;-65
2023/05/28 05:32:31;;;;;;;21.63;9.93;;;;;;;15.50;58.80;101946.38;5028273;28;20045;-65
2023/05/28 05:34:56;;;;;;;22.92;10.18;;;;;;;15.57;58.86;101942.28;5031358;28;20044;-65
2023/05/28 05:37:22;;;;;;;21.65;10.48;;;;;;;15.62;58.87;101938.69;5016020;28;20041;-65
2023/05/28 05:39:48;;;;;;;22.95;10.65;;;;;;;15.72;58.61;101941.66;5013947;28;20140;-67
2023/05/28 05:42:13;;;;;;;18.60;9.95;;;;;;;15.81;58.34;101945.69;5013696;28;20085;-65
2023/05/28 05:44:38;;;;;;;21.75;10.70;;;;;;;15.83;58.65;101953.81;5022698;28;20049;-65
2023/05/28 05:47:04;;;;;;;18.33;10.70;;;;;;;15.94;58.32;101955.63;5031856;28;20126;-65
2023/05/28 05:49:29;;;;;;;21.05;10.65;;;;;;;15.96;58.52;101959.03;5033352;28;20033;-65
2023/05/28 05:51:55;;;;;;;19.88;10.95;;;;;;;16.04;58.10;101964.16;5030972;28;20029;-65
2023/05/28 05:54:20;;;;;;;22.80;10.18;;;;;;;16.07;58.25;101960.84;5026986;28;20049;-65
2023/05/28 05:56:45;;;;;;;21.15;10.38;;;;;;;16.12;58.21;101960.03;5016176;28;20053;-65
2023/05/28 05:59:11;;;;;;;19.63;11.07;;;;;;;16.20;57.91;101962.38;5012526;28;20045;-65
2023/05/28 06:01:36;;;;;;;21.05;11.00;;;;;;;16.28;57.94;101959.09;5012607;28;20026;-65
2023/05/28 06:04:01;;;;;;;18.80;10.75;;;;;;;16.32;57.49;101959.41;5012783;28;20034;-65
2023/05/28 06:06:26;;;;;;;18.13;10.25;;;;;;;16.38;57.29;101955.53;5017271;28;20640;-65
2023/05/28 06:08:52;;;;;;;20.48;10.82;;;;;;;16.52;57.06;101958.75;5031921;28;20145;-65
2023/05/28 06:11:17;;;;;;;21.98;10.68;;;;;;;16.57;56.84;101956.00;5019710;28;20156;-65
2023/05/28 06:13:43;;;;;;;19.00;9.90;;;;;;;16.59;56.47;101965.00;5014348;28;20057;-65
2023/05/28 06:16:08;;;;;;;17.98;9.90;;;;;;;16.63;56.47;101964.19;5013609;28;20050;-65
2023/05/28 06:18:34;;;;;;;20.23;10.45;;;;;;;16.73;56.21;101957.84;5024867;28;20029;-65
2023/05/28 06:20:59;;;;;;;23.48;10.27;;;;;;;16.76;56.55;101962.91;5027931;28;20018;-65
2023/05/28 06:23:25;;;;;;;21.95;10.15;;;;;;;16.89;56.27;101965.25;5012644;28;20072;-65
2023/05/28 06:25:51;;;;;;;18.80;10.73;;;;;;;16.90;55.71;101955.75;5017469;28;20485;-65
2023/05/28 06:28:16;;;;;;;15.27;9.57;;;;;;;16.93;55.33;101952.38;5030541;28;20040;-65
2023/05/28 06:30:41;;;;;;;15.43;10.10;;;;;;;17.01;55.51;101948.25;5019010;28;20405;-65
2023/05/28 06:33:08;;;;;;;19.98;9.93;;;;;;;17.05;55.32;101948.53;5018645;28;20089;-65
2023/05/28 06:35:34;;;;;;;16.70;9.57;;;;;;;17.18;55.49;101945.28;5014399;28;20118;-65
2023/05/28 06:38:00;;;;;;;19.15;10.68;;;;;;;17.19;54.78;101941.34;5029593;28;20163;-65
2023/05/28 06:40:25;;;;;;;14.98;8.80;;;;;;;17.29;55.11;101944.25;5026894;28;20036;-65
2023/05/28 06:42:50;;;;;;;19.05;9.30;;;;;;;17.35;54.23;101954.34;5014043;28;20088;-64
2023/05/28 06:45:17;;;;;;;17.55;9.10;;;;;;;17.39;54.45;101949.88;5017833;28;20033;-65
2023/05/28 06:47:42;;;;;;;17.85;9.55;;;;;;;17.47;54.38;101948.53;5018849;28;20026;-67
2023/05/28 06:50:08;;;;;;;16.05;9.82;;;;;;;17.52;54.38;101948.53;5021801;28;20116;-64
2023/05/28 06:52:33;;;;;;;18.75;10.57;;;;;;;17.57;54.59;101942.13;5020565;28;20036;-66
2023/05/28 06:54:59;;;;;;;20.35;10.90;;;;;;;17.65;54.09;101952.84;5026347;28;20138;-66
2023/05/28 06:57:24;;;;;;;17.58;9.30;;;;;;;17.72;53.58;101950.59;5022976;28;20030;-65
2023/05/28 06:59:50;;;;;;;18.92;9.20;;;;;;;17.80;53.60;101944.50;5015742;28;20355;-66
2023/05/28 07:02:15;;;;;;;16.55;9.63;;;;;;;17.89;53.45;101951.28;5006149;28;20112;-67
2023/05/28 07:04:41;;;;;;;12.05;5.60;;;;;;;18.18;53.92;101941.50;5014983;28;20053;-67
2023/05/28 07:07:07;;;;;;;7.70;4.78;;;;;;;18.41;53.55;101946.59;5011194;28;20439;-66
2023/05/28 07:09:32;;;;;;;17.95;9.50;;;;;;;18.40;52.14;101951.38;5010208;28;20057;-65
2023/05/28 07:11:58;;;;;;;12.15;6.30;;;;;;;18.58;52.71;101955.59;5019796;28;20030;-66
2023/05/28 07:14:23;;;;;;;12.98;6.80;;;;;;;18.61;50.85;101957.03;5015467;28;20113;-66
2023/05/28 07:16:49;;;;;;;15.98;8.65;;;;;;;18.63;51.12;101950.00;5015468;28;20485;-66
2023/05/28 07:19:14;;;;;;;13.98;6.40;;;;;;;18.78;51.22;101951.97;5019391;28;20040;-68
2023/05/28 07:21:40;;;;;;;19.80;8.80;;;;;;;18.76;50.81;101959.03;5022972;28;20037;-67
2023/05/28 07:24:05;;;;;;;15.00;7.80;;;;;;;18.77;50.07;101964.38;5027627;28;20030;-65
2023/05/28 07:26:31;;;;;;;16.13;7.95;;;;;;;18.84;50.31;101967.75;5011453;28;20064;-65
2023/05/28 07:28:56;;;;;;;9.40;5.47;;;;;;;18.97;50.84;101973.94;5012848;28;20489;-68
2023/05/28 07:31:22;;;;;;;18.13;8.65;;;;;;;18.92;50.16;101969.16;5012428;28;20057;-68
2023/05/28 07:33:49;;;;;;;16.08;7.80;;;;;;;18.95;49.65;101976.19;5020985;28;20034;-68
2023/05/28 07:36:14;;;;;;;15.77;6.45;;;;;;;19.04;50.15;101971.69;5011231;28;20044;-65
2023/05/28 07:38:42;;;;;;;14.77;7.28;;;;;;;19.05;49.97;101974.19;5020952;28;20033;-66
2023/05/28 07:41:07;;;;;;;14.68;7.20;;;;;;;18.99;49.49;101968.88;5015749;28;20030;-66
2023/05/28 07:43:33;;;;;;;17.88;7.72;;;;;;;19.01;50.60;101969.41;5008994;28;20084;-66
2023/05/28 07:45:58;;;;;;;13.30;8.00;;;;;;;19.05;49.60;101968.56;5010939;28;20069;-68
2023/05/28 07:48:23;;;;;;;13.32;6.78;;;;;;;19.15;50.07;101962.09;5010005;28;20026;-68
2023/05/28 07:50:49;;;;;;;14.57;6.63;;;;;;;19.25;50.74;101956.44;5018220;28;20056;-68
2023/05/28 07:53:16;;;;;;;16.25;7.65;;;;;;;19.24;49.21;101960.38;5029182;28;20105;-68
2023/05/28 07:55:41;;;;;;;16.02;7.88;;;;;;;19.28;49.40;101967.13;5015347;28;20038;-68
2023/05/28 07:58:07;;;;;;;12.60;6.78;;;;;;;19.35;49.53;101961.22;5007039;28;20029;-69
2023/05/28 08:00:32;;;;;;;17.10;7.07;;;;;;;19.34;50.08;101954.75;5010201;28;20094;-68
2023/05/28 08:02:57;;;;;;;12.05;5.88;;;;;;;19.37;50.70;101962.63;5013142;28;20485;-68
2023/05/28 08:05:23;;;;;;;16.83;7.15;;;;;;;19.33;51.24;101964.28;5009922;28;20041;-68
2023/05/28 08:07:48;;;;;;;15.90;7.68;;;;;;;19.41;51.19;101964.84;5020439;28;20484;-68
2023/05/28 08:10:13;;;;;;;11.82;6.70;;;;;;;19.48;51.14;101965.38;5026301;28;20033;-68
2023/05/28 08:12:39;;;;;;;16.13;9.23;;;;;;;19.42;51.61;101969.38;5013596;28;20520;-68
2023/05/28 08:15:04;;;;;;;12.25;7.05;;;;;;;19.46;51.58;101962.88;5019442;28;20117;-68
2023/05/28 08:17:33;;;;;;;13.63;7.05;;;;;;;19.48;51.38;101963.41;5023383;28;20041;-67
2023/05/28 08:19:59;;;;;;;18.10;7.78;;;;;;;19.46;51.24;101965.69;5022804;28;20039;-68
2023/05/28 08:22:24;;;;;;;16.17;8.65;;;;;;;19.37;51.73;101964.56;5011892;28;20026;-68
2023/05/28 08:24:50;;;;;;;15.45;7.65;;;;;;;19.44;51.73;101962.28;5008545;28;20237;-68
2023/05/28 08:27:15;;;;;;;15.82;7.93;;;;;;;19.59;51.98;101962.25;5010187;28;20018;-68
2023/05/28 08:29:41;;;;;;;22.85;9.82;;;;;;;19.62;52.91;101963.69;5009492;28;20504;-68
2023/05/28 08:32:06;;;;;;;15.48;7.88;;;;;;;19.74;51.64;101958.56;5020314;28;20033;-68
2023/05/28 08:34:33;;;;;;;19.25;9.43;;;;;;;19.78;50.66;101956.03;5028804;28;20430;-69
2023/05/28 08:36:59;;;;;;;17.27;8.82;;;;;;;19.85;51.29;101960.22;5015252;28;20033;-68
2023/05/28 08:39:26;;;;;;;17.85;8.70;;;;;;;19.93;51.27;101958.78;5012081;28;20033;-68
2023/05/28 08:41:52;;;;;;;15.95;7.45;;;;;;;20.07;50.38;101950.50;5028687;28;20037;-68
2023/05/28 08:44:19;;;;;;;18.65;9.65;;;;;;;20.06;50.36;101955.31;5028174;28;20551;-68
2023/05/28 08:46:45;;;;;;;15.48;7.78;;;;;;;20.20;50.30;101947.06;5025164;28;20042;-68
2023/05/28 08:49:12;;;;;;;15.25;9.02;;;;;;;20.22;50.67;101946.75;5016256;28;20492;-68
2023/05/28 08:51:41;;;;;;;17.63;8.45;;;;;;;20.29;50.01;101950.94;5021874;28;20048;-68
2023/05/28 08:54:08;;;;;;;19.73;9.05;;;;;;;20.40;50.46;101948.91;5011823;28;20026;-68
2023/05/28 08:56:34;;;;;;;12.25;7.88;;;;;;;20.41;49.50;101946.94;5020454;28;20528;-69
2023/05/28 08:59:01;;;;;;;18.73;8.25;;;;;;;20.49;49.99;101941.53;5013640;28;20030;-67
2023/05/28 09:01:27;;;;;;;16.35;8.57;;;;;;;20.51;49.67;101933.59;5019767;28;20122;-67
2023/05/28 09:03:52;;;;;;;15.02;7.47;;;;;;;20.63;49.74;101938.88;5007029;28;20037;-68
2023/05/28 09:06:19;;;;;;;13.25;6.25;;;;;;;20.67;48.67;101933.47;5014915;28;20029;-68
2023/05/28 09:08:45;;;;;;;17.15;6.47;;;;;;;20.71;48.03;101928.94;5024597;28;20029;-67
2023/05/28 09:11:12;;;;;;;16.05;6.10;;;;;;;20.73;45.40;101935.13;5017505;28;20547;-67
2023/05/28 09:13:45;;;;;;;12.35;5.95;;;;;;;20.79;45.28;101931.16;5031179;28;20036;-68
2023/05/28 09:16:11;;;;;;;14.43;5.43;;;;;;;20.83;44.90;101941.53;5024844;28;20057;-68
2023/05/28 09:18:37;;;;;;;11.60;5.32;;;;;;;20.80;42.99;101936.47;5031670;28;20061;-68
2023/05/28 09:21:10;;;;;;;12.45;5.53;;;;;;;20.87;43.83;101930.50;5028123;28;20064;-67
2023/05/28 09:23:36;;;;;;;12.30;5.18;;;;;;;20.89;43.76;101930.19;5017621;28;20072;-67
2023/05/28 09:26:01;;;;;;;10.05;5.35;;;;;;;20.98;44.64;101926.41;5020120;28;20057;-67
2023/05/28 09:28:29;;;;;;;12.25;5.55;;;;;;;21.00;44.55;101926.13;5012132;28;20065;-68
2023/05/28 09:31:05;;;;;;;12.05;5.55;;;;;;;20.99;44.84;101933.75;5022001;28;20049;-68
2023/05/28 09:33:32;;;;;;;10.93;5.47;;;;;;;21.07;44.57;101927.47;5030182;28;20037;-68
2023/05/28 09:36:02;;;;;;;13.30;5.80;;;;;;;21.12;43.86;101929.41;5015824;28;20469;-68
2023/05/28 09:38:39;;;;;;;13.93;5.43;;;;;;;21.16;44.21;101935.28;5015771;28;20037;-68
2023/05/28 09:41:04;;;;;;;11.77;4.88;;;;;;;21.11;41.76;101929.69;5022351;28;20381;-67
2023/05/28 09:43:29;;;;;;;13.10;5.45;;;;;;;21.07;42.25;101923.81;5028969;28;20029;-67
2023/05/28 09:46:08;;;;;;;14.30;5.30;;;;;;;21.07;42.74;101930.28;5015002;28;20029;-67
2023/05/28 09:48:33;;;;;;;12.57;5.15;;;;;;;21.07;42.89;101926.63;5020270;28;20029;-66
2023/05/28 09:51:00;;;;;;;12.43;5.18;;;;;;;21.11;44.11;101930.53;5029044;28;20035;-66
2023/05/28 09:53:28;;;;;;;14.38;5.00;;;;;;;21.17;43.28;101923.69;5028089;28;20384;-65
2023/05/28 09:55:54;;;;;;;9.68;4.57;;;;;;;21.20;42.25;101920.28;5013008;28;20044;-65
2023/05/28 09:58:22;;;;;;;10.55;4.65;;;;;;;21.23;41.53;101921.66;5009685;28;20030;-65
2023/05/28 10:00:54;;;;;;;9.38;4.72;;;;;;;21.28;41.89;101916.78;5012679;28;20129;-63
2023/05/28 10:03:28;;;;;;;12.57;4.80;;;;;;;21.29;42.32;101915.63;5011424;28;20474;-60
2023/05/28 10:05:59;;;;;;;12.13;4.82;;;;;;;21.22;40.73;101920.81;5011385;28;20041;-60
2023/05/28 10:08:25;;;;;;;11.93;5.00;;;;;;;21.23;40.55;101916.00;5032257;28;20056;-61
2023/05/28 10:10:54;;;;;;;11.15;4.47;;;;;;;21.32;41.22;101912.25;5031540;28;20021;-61
2023/05/28 10:13:21;;;;;;;9.07;4.03;;;;;;;21.44;41.14;101927.94;5031678;28;20124;-67
2023/05/28 10:15:48;;;;;;;15.75;4.43;;;;;;;21.48;39.41;101926.19;5014424;28;20041;-67
2023/05/28 10:18:14;;;;;;;13.50;4.65;;;;;;;21.50;38.90;101918.28;5011265;28;20030;-67
2023/05/28 10:20:40;;;;;;;8.40;3.97;;;;;;;21.50;38.27;101919.13;5016664;28;20030;-67
2023/05/28 10:23:08;;;;;;;13.45;4.50;;;;;;;21.56;39.13;101922.69;5008979;28;20112;-67
2023/05/28 10:25:33;;;;;;;13.48;5.30;;;;;;;21.59;39.57;101915.63;5013934;28;20107;-65
2023/05/28 10:28:03;;;;;;;10.57;4.20;;;;;;;21.70;40.25;101917.19;5016627;28;20568;-66
2023/05/28 10:30:32;;;;;;;10.00;4.28;;;;;;;21.74;40.52;101921.06;5024268;28;20026;-65
2023/05/28 10:32:57;;;;;;;12.27;5.05;;;;;;;21.74;39.73;101916.25;5012983;28;20041;-67
2023/05/28 10:35:23;;;;;;;12.18;4.57;;;;;;;21.77;40.35;101918.50;5020895;28;20381;-68
2023/05/28 10:37:48;;;;;;;9.68;4.40;;;;;;;21.81;39.37;101922.38;5020457;28;20402;-68
2023/05/28 10:40:23;;;;;;;10.13;4.80;;;;;;;21.82;39.64;101920.41;5023127;28;20029;-68
2023/05/28 10:42:49;;;;;;;7.60;4.05;;;;;;;21.84;39.53;101908.78;5006754;28;20041;-68
2023/05/28 10:45:14;;;;;;;13.40;4.82;;;;;;;21.83;38.92;101924.91;5026996;28;20030;-68
2023/05/28 10:47:41;;;;;;;10.32;4.40;;;;;;;21.85;38.42;101928.28;5014651;28;20513;-68
2023/05/28 10:50:11;;;;;;;8.93;4.22;;;;;;;21.81;38.86;101928.03;5021702;28;20132;-69
2023/05/28 10:52:37;;;;;;;10.02;4.07;;;;;;;21.81;39.85;101911.09;5018672;28;20038;-68
2023/05/28 10:55:07;;;;;;;10.77;4.50;;;;;;;21.81;39.58;101928.03;5011127;28;20030;-71
2023/05/28 10:58:06;;;;;;;9.52;4.72;;;;;;;21.80;39.52;101923.50;5020397;28;20041;-71
2023/05/28 11:00:40;;;;;;;10.70;4.53;;;;;;;21.75;38.85;101928.41;5010116;28;20033;-69
2023/05/28 11:03:06;;;;;;;10.00;4.38;;;;;;;21.76;38.94;101921.59;5019431;28;20715;-69
2023/05/28 11:05:31;;;;;;;9.63;4.38;;;;;;;21.72;38.93;101921.38;5019343;28;20110;-69
2023/05/28 11:07:57;;;;;;;7.47;4.03;;;;;;;21.77;39.64;101932.63;5014472;28;20025;-69
2023/05/28 11:10:23;;;;;;;8.32;4.15;;;;;;;21.83;39.74;101921.25;5017291;28;20080;-70